createdAt,value
2023-01-03T00:02:49.958Z,8.39
2023-01-03T00:13:14.307Z,8.32
2023-01-03T00:23:38.689Z,8.29
2023-01-03T00:34:03.021Z,8.22
2023-01-03T00:44:27.283Z,8.16
2023-01-03T00:54:51.459Z,8.16
2023-01-03T01:05:15.880Z,8.09
2023-01-03T01:15:40.319Z,8.05
2023-01-03T01:26:06.093Z,8.06
2023-01-03T01:36:33.277Z,7.99
2023-01-03T01:46:57.591Z,7.98
2023-01-03T01:57:24.416Z,7.97
2023-01-03T02:07:50.483Z,7.98
2023-01-03T02:18:42.069Z,8.03
2023-01-03T02:29:35.627Z,7.99
2023-01-03T02:40:08.423Z,8.02
2023-01-03T02:50:42.849Z,8.15
2023-01-03T03:01:10.186Z,8.27
2023-01-03T03:11:56.805Z,8.33
2023-01-03T03:22:47.778Z,8.40
2023-01-03T03:33:15.318Z,8.46
2023-01-03T03:44:07.055Z,8.57
2023-01-03T03:54:35.685Z,8.77
2023-01-03T04:05:05.342Z,8.93
2023-01-03T04:15:29.791Z,8.93
2023-01-03T04:25:54.119Z,8.93
2023-01-03T04:36:18.320Z,9.00
2023-01-03T04:46:45.163Z,9.07
2023-01-03T04:57:13.337Z,9.18
2023-01-03T05:07:37.527Z,9.30
2023-01-03T05:18:01.989Z,9.56
2023-01-03T05:28:26.247Z,9.75
2023-01-03T05:38:50.435Z,9.78
2023-01-03T05:49:14.692Z,9.79
2023-01-03T05:59:38.904Z,9.94
2023-01-03T06:10:03.218Z,9.97
2023-01-03T06:20:27.959Z,10.02
2023-01-03T06:30:52.629Z,9.99
2023-01-03T06:41:17.398Z,10.06
2023-01-03T06:52:00.237Z,10.04
2023-01-03T07:02:24.774Z,10.15
2023-01-03T07:13:07.560Z,10.21
2023-01-03T07:23:31.748Z,10.25
2023-01-03T07:33:56.947Z,10.31
2023-01-03T07:44:21.304Z,10.40
2023-01-03T07:54:45.658Z,10.45
2023-01-03T08:05:10.726Z,10.39
2023-01-03T08:15:35.033Z,10.35
2023-01-03T08:26:03.000Z,10.34
2023-01-03T08:36:31.934Z,10.19
2023-01-03T08:46:59.032Z,10.20
2023-01-03T08:57:23.242Z,10.24
2023-01-03T09:07:47.431Z,10.13
2023-01-03T09:18:12.170Z,10.09
2023-01-03T09:28:36.447Z,9.94
2023-01-03T09:39:00.655Z,9.95
2023-01-03T09:49:25.165Z,10.05
2023-01-03T10:00:07.896Z,10.15
2023-01-03T10:10:41.305Z,10.16
2023-01-03T10:21:08.964Z,10.08
2023-01-03T10:31:48.767Z,10.01
2023-01-03T10:42:18.229Z,10.02
2023-01-03T10:52:42.519Z,10.10
2023-01-03T11:03:19.154Z,10.16
2023-01-03T11:13:43.468Z,10.21
2023-01-03T11:24:23.209Z,10.22
2023-01-03T11:35:25.963Z,10.25
2023-01-03T11:46:07.447Z,10.27
2023-01-03T11:56:34.759Z,10.29
2023-01-03T12:18:02.318Z,10.34
2023-01-03T12:28:33.122Z,10.31
2023-01-03T12:39:06.469Z,10.11
2023-01-03T12:49:35.300Z,9.91
2023-01-03T13:00:21.243Z,9.82
2023-01-03T13:10:50.343Z,9.84
2023-01-03T13:21:49.679Z,10.07
2023-01-03T13:32:25.358Z,10.18
2023-01-03T13:43:00.616Z,10.29
2023-01-03T13:53:36.441Z,10.29
2023-01-03T14:04:22.599Z,10.31
2023-01-03T14:14:53.002Z,10.40
2023-01-03T14:25:32.922Z,10.57
2023-01-03T14:36:04.116Z,10.55
2023-01-03T14:46:30.623Z,10.65
2023-01-03T14:56:55.757Z,10.61
2023-01-03T15:07:33.155Z,10.62
2023-01-03T15:18:02.144Z,10.49
2023-01-03T15:28:28.979Z,10.22
2023-01-03T15:38:53.327Z,10.21
2023-01-03T15:49:21.457Z,10.05
2023-01-03T15:59:47.199Z,9.94
2023-01-03T16:10:12.464Z,9.76
2023-01-03T16:20:36.829Z,9.49
2023-01-03T16:31:04.359Z,9.44
2023-01-03T16:41:28.730Z,9.48
2023-01-03T16:51:57.542Z,9.54
2023-01-03T17:02:22.464Z,9.65
2023-01-03T17:12:47.038Z,9.82
2023-01-03T17:23:11.733Z,9.88
2023-01-03T17:33:35.992Z,9.94
2023-01-03T17:44:00.207Z,9.97
2023-01-03T17:54:27.651Z,9.20
2023-01-03T18:15:36.770Z,8.19
2023-01-03T18:26:03.104Z,8.33
2023-01-03T18:36:29.190Z,8.39
2023-01-03T18:46:53.609Z,8.34
2023-01-03T18:57:18.283Z,8.38
2023-01-03T19:07:43.629Z,8.36
2023-01-03T19:18:10.553Z,8.32
2023-01-03T19:28:35.087Z,8.33
2023-01-03T19:38:59.387Z,8.29
2023-01-03T19:49:23.929Z,8.00
2023-01-03T19:59:51.555Z,7.91
2023-01-03T20:10:20.948Z,7.95
2023-01-03T20:20:45.507Z,8.04
2023-01-03T20:31:11.275Z,8.02
2023-01-03T20:41:37.467Z,7.97
2023-01-03T20:52:01.756Z,7.67
2023-01-03T21:02:26.159Z,7.57
2023-01-03T21:12:50.946Z,7.30
2023-01-03T21:23:17.741Z,7.31
2023-01-03T21:33:41.944Z,7.39
2023-01-03T21:44:07.107Z,7.35
2023-01-03T21:54:31.539Z,7.19
2023-01-03T22:04:55.858Z,7.09
2023-01-03T22:15:20.669Z,7.10
2023-01-03T22:25:44.887Z,7.15
2023-01-03T22:36:10.503Z,7.16
2023-01-03T22:46:34.976Z,7.08
2023-01-03T22:56:59.465Z,6.88
2023-01-03T23:07:23.682Z,6.64
2023-01-03T23:17:57.207Z,6.49
2023-01-03T23:28:22.387Z,6.24
2023-01-03T23:38:47.139Z,6.02
2023-01-03T23:49:12.474Z,5.88
2023-01-03T23:59:36.713Z,5.62
